Time;durP1;ratioP1;P1;durP2;ratioP2;P2;SDS_P1;SDS_P2;PMS_P1;PMS_P2;Temp;Humidity;BMP_temperature;BMP_pressure;BME280_temperature;BME280_humidity;BME280_pressure;Samples;Min_cycle;Max_cycle;Signal;HPM_P1;HPM_P2
2022/12/28 00:00:16;;;;;;;28.15;9.57;;;;;;;5.52;100.00;101408.38;4990685;28;20026;-89
2022/12/28 00:02:41;;;;;;;25.40;8.88;;;;;;;5.69;100.00;101422.25;4984613;28;20069;-90
2022/12/28 00:05:07;;;;;;;21.92;10.13;;;;;;;5.56;100.00;101395.47;5007778;28;20048;-89
2022/12/28 00:07:33;;;;;;;21.35;8.80;;;;;;;5.43;100.00;101386.19;4985714;28;20064;-89
2022/12/28 00:09:58;;;;;;;24.30;10.25;;;;;;;5.62;100.00;101394.16;5006487;28;20030;-89
2022/12/28 00:12:23;;;;;;;20.17;9.27;;;;;;;5.54;100.00;101380.28;5004456;28;20030;-90
2022/12/28 00:14:49;;;;;;;27.70;9.45;;;;;;;5.47;100.00;101369.69;4987575;28;20577;-90
2022/12/28 00:17:14;;;;;;;18.23;9.18;;;;;;;5.56;100.00;101386.34;5008312;28;20038;-90
2022/12/28 00:19:40;;;;;;;31.65;9.07;;;;;;;5.50;100.00;101374.59;5008224;28;20022;-89
2022/12/28 00:22:05;;;;;;;23.50;9.07;;;;;;;5.54;100.00;101369.19;4992077;28;20057;-89
2022/12/28 00:24:30;;;;;;;20.85;8.93;;;;;;;5.47;100.00;101348.31;4991337;28;20520;-89
2022/12/28 00:26:56;;;;;;;20.60;8.38;;;;;;;5.60;100.00;101340.09;4987228;28;20026;-91
2022/12/28 00:29:22;;;;;;;29.23;9.52;;;;;;;5.54;100.00;101335.88;4987770;28;20114;-89
2022/12/28 00:31:47;;;;;;;30.55;10.30;;;;;;;5.54;100.00;101347.78;4986803;28;20118;-90
2022/12/28 00:34:13;;;;;;;17.88;8.50;;;;;;;5.44;100.00;101321.22;5007976;28;20133;-90
2022/12/28 00:36:38;;;;;;;27.05;8.52;;;;;;;5.58;100.00;101325.72;4993017;28;20054;-91
2022/12/28 00:39:04;;;;;;;17.45;8.35;;;;;;;5.60;100.00;101324.25;4997229;28;20100;-89
2022/12/28 00:41:29;;;;;;;19.75;9.40;;;;;;;5.36;100.00;101291.53;4992332;28;20065;-90
2022/12/28 00:43:55;;;;;;;22.75;9.05;;;;;;;5.47;100.00;101281.66;4988541;28;20045;-91
2022/12/28 00:46:20;;;;;;;23.02;10.75;;;;;;;5.49;100.00;101287.69;4992430;28;20034;-90
2022/12/28 00:48:46;;;;;;;17.90;9.18;;;;;;;5.68;100.00;101292.03;4990535;28;20069;-90
2022/12/28 00:51:14;;;;;;;21.95;9.85;;;;;;;5.65;100.00;101287.13;4988845;28;20129;-89
2022/12/28 00:53:39;;;;;;;21.42;9.13;;;;;;;5.60;100.00;101290.09;5008826;28;20062;-89
2022/12/28 00:56:16;;;;;;;32.10;9.95;;;;;;;5.65;100.00;101281.56;4992592;28;20023;-91
2022/12/28 00:58:42;;;;;;;22.33;9.93;;;;;;;5.67;100.00;101284.84;4992590;28;20065;-90
2022/12/28 01:01:19;;;;;;;21.58;10.25;;;;;;;5.60;100.00;101270.66;5007589;28;20062;-89
2022/12/28 01:03:45;;;;;;;23.80;9.80;;;;;;;5.61;100.00;101255.66;4983577;28;20054;-90
2022/12/28 01:06:13;;;;;;;22.63;9.85;;;;;;;5.68;100.00;101244.81;5003271;28;20479;-90
2022/12/28 01:08:39;;;;;;;28.77;11.57;;;;;;;5.65;100.00;101229.66;4989224;28;20113;-91
2022/12/28 01:11:15;;;;;;;23.38;9.60;;;;;;;5.64;100.00;101232.75;4993369;28;20360;-90
2022/12/28 01:13:41;;;;;;;30.73;11.57;;;;;;;5.73;100.00;101227.94;4987389;28;20621;-89
2022/12/28 01:16:13;;;;;;;20.42;9.82;;;;;;;5.69;100.00;101218.66;4987680;28;20109;-90
2022/12/28 01:18:39;;;;;;;22.77;10.35;;;;;;;5.74;100.00;101221.25;5003445;28;20446;-90
2022/12/28 01:21:12;;;;;;;23.40;10.95;;;;;;;5.65;100.00;101192.69;4992611;28;20080;-91
2022/12/28 01:23:38;;;;;;;27.95;10.30;;;;;;;5.80;100.00;101221.88;4988978;28;20548;-90
2022/12/28 01:26:03;;;;;;;23.52;9.75;;;;;;;5.81;100.00;101213.19;4990705;28;20030;-90
2022/12/28 01:28:29;;;;;;;19.92;9.88;;;;;;;5.71;100.00;101183.03;4988062;28;20042;-90
2022/12/28 01:30:54;;;;;;;24.30;10.13;;;;;;;5.73;100.00;101180.72;4990218;28;20061;-90
2022/12/28 01:33:20;;;;;;;19.85;9.00;;;;;;;5.84;100.00;101195.84;4990073;28;20104;-89
2022/12/28 01:35:45;;;;;;;18.15;8.98;;;;;;;5.81;100.00;101185.41;5005523;28;20386;-90
2022/12/28 01:38:10;;;;;;;19.92;9.15;;;;;;;5.78;100.00;101165.84;4989902;28;20550;-90
2022/12/28 01:40:36;;;;;;;24.10;10.77;;;;;;;5.78;100.00;101180.53;4987928;28;20438;-90
2022/12/28 01:43:09;;;;;;;20.30;11.25;;;;;;;5.88;100.00;101191.25;4991608;28;20030;-90
2022/12/28 01:45:35;;;;;;;22.98;9.30;;;;;;;5.83;100.00;101180.31;4990026;28;20031;-90
2022/12/28 01:48:00;;;;;;;17.02;9.00;;;;;;;5.87;100.00;101180.47;4990059;28;20022;-90
2022/12/28 01:50:27;;;;;;;26.50;10.35;;;;;;;5.88;100.00;101151.53;4989101;28;20057;-90
2022/12/28 01:53:00;;;;;;;22.05;11.20;;;;;;;6.01;100.00;101171.88;5006826;28;20113;-90
2022/12/28 01:55:38;;;;;;;26.17;11.07;;;;;;;6.00;100.00;101148.84;4990430;28;20037;-90
2022/12/28 01:58:06;;;;;;;31.02;9.52;;;;;;;6.08;100.00;101161.84;5004995;28;20029;-90
2022/12/28 02:00:32;;;;;;;22.83;10.40;;;;;;;6.14;100.00;101142.22;4985711;28;20073;-90
2022/12/28 02:02:59;;;;;;;19.10;9.15;;;;;;;6.12;100.00;101156.44;4989826;28;20058;-90
2022/12/28 02:05:30;;;;;;;26.20;8.98;;;;;;;6.10;100.00;101136.50;5009626;28;20045;-90
2022/12/28 02:08:06;;;;;;;34.13;10.73;;;;;;;6.06;100.00;101130.00;4987454;28;20442;-90
2022/12/28 02:10:34;;;;;;;23.92;9.32;;;;;;;6.04;100.00;101127.56;5006076;28;20026;-91
2022/12/28 02:13:01;;;;;;;20.85;9.43;;;;;;;6.04;100.00;101115.63;4989431;28;20026;-90
2022/12/28 02:15:27;;;;;;;21.13;9.15;;;;;;;6.06;100.00;101113.34;4984890;28;20034;-90
2022/12/28 02:17:52;;;;;;;19.23;8.82;;;;;;;6.08;100.00;101099.91;4990899;28;20033;-90
2022/12/28 02:20:18;;;;;;;19.67;10.27;;;;;;;6.06;100.00;101099.44;4992918;28;20057;-89
2022/12/28 02:23:19;;;;;;;21.20;11.25;;;;;;;6.10;100.00;101100.38;4986788;28;20029;-90
2022/12/28 02:26:03;;;;;;;21.95;9.32;;;;;;;6.13;100.00;101098.88;4990228;28;20026;-90
2022/12/28 02:28:46;;;;;;;23.70;9.55;;;;;;;6.15;100.00;101075.13;4998954;28;20065;-90
2022/12/28 02:31:19;;;;;;;23.23;9.43;;;;;;;6.05;100.00;101058.88;5000016;28;20038;-90
2022/12/28 02:33:56;;;;;;;18.77;10.27;;;;;;;6.11;100.00;101057.53;4988595;28;20030;-91
2022/12/28 02:36:28;;;;;;;26.25;11.25;;;;;;;6.11;100.00;101063.06;4987483;28;20085;-91
2022/12/28 02:39:04;;;;;;;21.73;9.55;;;;;;;6.06;100.00;101035.53;4990017;28;20096;-91
2022/12/28 02:41:30;;;;;;;25.02;9.75;;;;;;;6.17;100.00;101058.94;4990354;28;20031;-90
2022/12/28 02:43:58;;;;;;;18.48;9.30;;;;;;;6.03;100.00;101033.41;4997702;28;20034;-91
2022/12/28 02:52:14;;;;;;;;;;;;;;;6.15;100.00;101041.78;4983270;28;20553;-90
2022/12/28 02:58:25;;;;;;;17.92;10.05;;;;;;;6.10;100.00;101039.25;4984206;28;20070;-90
2022/12/28 03:01:16;;;;;;;20.48;9.50;;;;;;;6.15;100.00;101029.88;4998873;28;20030;-90
2022/12/28 03:03:55;;;;;;;16.02;8.80;;;;;;;6.14;100.00;101014.34;5002963;28;20521;-90
2022/12/28 03:09:36;;;;;;;23.23;10.40;;;;;;;6.11;100.00;101010.28;4989747;28;20045;-90
2022/12/28 03:12:20;;;;;;;23.27;8.43;;;;;;;6.22;100.00;101011.47;5003991;28;20042;-91
2022/12/28 03:14:57;;;;;;;17.35;9.40;;;;;;;6.23;100.00;101007.53;4994702;28;20095;-90
2022/12/28 03:31:28;;;;;;;18.38;8.90;;;;;;;6.21;100.00;100990.38;4981285;28;20135;-92
2022/12/28 03:34:05;;;;;;;16.67;7.88;;;;;;;6.17;100.00;100997.78;4981899;28;20363;-92
2022/12/28 03:37:01;;;;;;;18.33;8.93;;;;;;;6.19;100.00;100989.91;4985068;28;20037;-92
2022/12/28 03:39:44;;;;;;;19.50;8.40;;;;;;;6.13;100.00;100980.19;4987162;28;20125;-92
2022/12/28 03:45:32;;;;;;;;;;;;;;;6.25;100.00;100977.41;4991486;28;19925;-89
2022/12/28 03:48:00;;;;;;;14.02;7.68;;;;;;;6.20;100.00;100963.75;5005070;28;19917;-91
2022/12/28 03:50:26;;;;;;;15.85;7.30;;;;;;;6.24;100.00;100975.81;5004910;28;20525;-91
2022/12/28 03:52:51;;;;;;;16.00;7.78;;;;;;;6.22;100.00;100975.34;4990350;28;20058;-91
2022/12/28 03:55:17;;;;;;;11.73;6.35;;;;;;;6.28;100.00;100964.78;4991458;28;20322;-91
2022/12/28 03:57:42;;;;;;;13.35;7.40;;;;;;;6.27;100.00;100963.97;4987312;28;20034;-92
2022/12/28 04:00:09;;;;;;;14.93;7.88;;;;;;;6.27;100.00;100960.41;5005508;28;20098;-91
2022/12/28 04:02:35;;;;;;;17.85;6.95;;;;;;;6.35;100.00;100961.44;4988168;28;20054;-92
2022/12/28 04:05:01;;;;;;;14.02;6.80;;;;;;;6.28;100.00;100943.38;4991269;28;20084;-91
2022/12/28 04:07:27;;;;;;;12.07;7.03;;;;;;;6.27;100.00;100949.28;4986898;28;20034;-91
2022/12/28 04:09:52;;;;;;;18.27;8.55;;;;;;;6.38;100.00;100950.44;4991486;28;20084;-91
2022/12/28 04:12:17;;;;;;;13.88;7.25;;;;;;;6.37;100.00;100931.34;4993060;28;20482;-91
2022/12/28 04:14:43;;;;;;;11.10;6.60;;;;;;;6.23;100.00;100918.56;4991377;28;20034;-92
2022/12/28 04:17:08;;;;;;;10.05;6.47;;;;;;;6.43;100.00;100938.25;4990941;28;20023;-91
2022/12/28 04:19:33;;;;;;;14.30;7.25;;;;;;;6.22;100.00;100894.72;4992743;28;20026;-91
2022/12/28 04:21:59;;;;;;;12.80;7.80;;;;;;;6.40;100.00;100934.22;4982774;28;20034;-91
2022/12/28 04:24:24;;;;;;;10.95;6.72;;;;;;;6.25;100.00;100899.59;4992835;28;20029;-91
2022/12/28 04:26:50;;;;;;;14.45;8.45;;;;;;;6.44;100.00;100926.00;4991361;28;20104;-92
2022/12/28 04:29:15;;;;;;;13.10;7.82;;;;;;;6.31;100.00;100909.31;4987822;28;20113;-93
2022/12/28 04:31:41;;;;;;;20.17;8.18;;;;;;;6.44;100.00;100926.00;4984703;28;20026;-91
2022/12/28 04:34:06;;;;;;;21.70;8.50;;;;;;;6.44;100.00;100931.56;4991580;28;20029;-91
2022/12/28 04:36:32;;;;;;;15.75;8.80;;;;;;;6.47;100.00;100916.94;4992919;28;20034;-92
2022/12/28 04:38:58;;;;;;;18.05;8.85;;;;;;;6.50;100.00;100919.84;4997646;28;20026;-91
2022/12/28 04:41:24;;;;;;;17.02;8.45;;;;;;;6.49;100.00;100923.78;4991726;28;20135;-91
2022/12/28 04:43:49;;;;;;;13.23;8.57;;;;;;;6.46;100.00;100898.66;4994452;28;20038;-91
2022/12/28 04:46:17;;;;;;;18.73;9.93;;;;;;;6.49;100.00;100887.66;4990010;28;20030;-90
2022/12/28 04:48:43;;;;;;;19.30;9.55;;;;;;;6.50;100.00;100882.88;4986776;28;20117;-92
2022/12/28 04:51:29;;;;;;;17.02;10.20;;;;;;;6.61;100.00;100900.69;4985147;28;20133;-91
2022/12/28 04:53:56;;;;;;;17.05;9.60;;;;;;;6.59;100.00;100896.66;4986858;28;20486;-91
2022/12/28 04:56:23;;;;;;;23.48;12.05;;;;;;;6.63;100.00;100894.78;4982037;28;20078;-92
2022/12/28 04:58:54;;;;;;;19.33;11.50;;;;;;;6.64;100.00;100902.78;4989461;28;20037;-92
2022/12/28 05:01:19;;;;;;;18.13;10.43;;;;;;;6.63;100.00;100897.56;4988462;28;20088;-91
2022/12/28 05:03:46;;;;;;;17.92;11.40;;;;;;;6.67;100.00;100887.38;4998225;28;20502;-90
2022/12/28 05:06:14;;;;;;;20.05;10.25;;;;;;;6.71;100.00;100893.84;4989205;28;20084;-91
2022/12/28 05:08:40;;;;;;;22.95;12.20;;;;;;;6.64;100.00;100883.31;5001500;28;20084;-91
2022/12/28 05:11:17;;;;;;;19.85;10.52;;;;;;;6.66;100.00;100869.06;4982639;28;20031;-92
2022/12/28 05:13:43;;;;;;;20.38;11.32;;;;;;;6.73;100.00;100885.97;4986934;28;20513;-91
2022/12/28 05:16:11;;;;;;;20.83;11.50;;;;;;;6.80;100.00;100897.31;4986317;28;20018;-91
2022/12/28 05:18:37;;;;;;;22.73;11.77;;;;;;;6.88;100.00;100893.56;4988628;28;20113;-90
2022/12/28 05:21:09;;;;;;;22.85;12.25;;;;;;;6.67;100.00;100874.28;4983092;28;20511;-91
2022/12/28 05:23:36;;;;;;;23.45;13.32;;;;;;;6.97;100.00;100906.53;5003031;28;20034;-91
2022/12/28 05:26:02;;;;;;;21.70;11.90;;;;;;;6.92;100.00;100893.69;4983127;28;20088;-91
2022/12/28 05:28:27;;;;;;;25.55;13.15;;;;;;;6.90;100.00;100901.56;4987668;28;20026;-91
2022/12/28 05:30:59;;;;;;;23.48;12.38;;;;;;;6.90;100.00;100907.13;4987988;28;20572;-90
2022/12/28 05:33:24;;;;;;;21.35;11.80;;;;;;;6.86;100.00;100893.13;5001261;28;20033;-90
2022/12/28 05:35:50;;;;;;;22.75;12.55;;;;;;;7.03;100.00;100907.91;5000394;28;20030;-90
2022/12/28 05:38:15;;;;;;;24.50;12.38;;;;;;;6.96;100.00;100902.94;4984953;28;20112;-90
2022/12/28 05:40:40;;;;;;;26.75;13.25;;;;;;;6.99;100.00;100893.88;4992923;28;20749;-91
2022/12/28 05:43:06;;;;;;;25.77;12.57;;;;;;;7.00;100.00;100889.13;5004199;28;20034;-91
2022/12/28 05:45:31;;;;;;;26.25;12.82;;;;;;;7.01;100.00;100891.56;4988738;28;20168;-91
2022/12/28 05:47:56;;;;;;;21.98;12.32;;;;;;;7.06;100.00;100899.66;4986975;28;20030;-91
2022/12/28 05:50:22;;;;;;;24.27;12.60;;;;;;;7.06;100.00;100888.53;4987186;28;20062;-92
2022/12/28 05:52:47;;;;;;;27.40;13.82;;;;;;;7.11;100.00;100904.97;4978118;28;20034;-91
2022/12/28 05:55:13;;;;;;;23.02;13.15;;;;;;;7.14;100.00;100900.66;4988344;28;20068;-93
2022/12/28 05:57:38;;;;;;;22.92;12.35;;;;;;;7.04;100.00;100873.34;4983066;28;20034;-91
2022/12/28 06:00:04;;;;;;;22.05;12.13;;;;;;;7.13;100.00;100874.81;5004794;28;20030;-90
2022/12/28 06:02:29;;;;;;;24.48;12.32;;;;;;;7.19;100.00;100880.13;4971564;28;20140;-91
2022/12/28 06:04:55;;;;;;;25.05;13.07;;;;;;;7.22;100.00;100877.44;4994009;28;20506;-90
2022/12/28 06:07:21;;;;;;;20.98;12.10;;;;;;;7.18;100.00;100873.75;4985921;28;20569;-90
2022/12/28 06:09:46;;;;;;;21.55;12.27;;;;;;;7.20;100.00;100870.59;5000270;28;20026;-90
2022/12/28 06:12:11;;;;;;;29.90;15.05;;;;;;;7.28;100.00;100869.66;4998028;28;20057;-91
2022/12/28 06:14:37;;;;;;;26.00;12.77;;;;;;;7.19;100.00;100868.97;4987817;28;20026;-90
2022/12/28 06:17:02;;;;;;;22.77;13.02;;;;;;;7.19;100.00;100868.97;4988149;28;20161;-90
2022/12/28 06:19:27;;;;;;;21.75;11.88;;;;;;;7.12;100.00;100853.69;4986014;28;20113;-91
2022/12/28 06:21:53;;;;;;;21.77;12.50;;;;;;;7.22;100.00;100866.31;4982420;28;20035;-91
2022/12/28 06:24:18;;;;;;;27.17;14.15;;;;;;;7.26;100.00;100861.66;4984305;28;20030;-90
2022/12/28 06:26:44;;;;;;;24.58;13.32;;;;;;;7.17;100.00;100855.44;4983868;28;20486;-90
2022/12/28 06:29:10;;;;;;;27.98;14.25;;;;;;;7.44;100.00;100873.28;4996194;28;20034;-91
2022/12/28 06:31:40;;;;;;;28.50;15.98;;;;;;;7.37;100.00;100878.63;4981197;28;20117;-91
2022/12/28 06:34:07;;;;;;;25.85;12.60;;;;;;;7.29;100.00;100879.59;4996828;28;20025;-92
2022/12/28 06:36:41;;;;;;;26.02;14.68;;;;;;;7.39;100.00;100872.72;4982291;28;20030;-91
2022/12/28 06:39:09;;;;;;;23.17;12.13;;;;;;;7.43;100.00;100873.63;4980874;28;20093;-90
2022/12/28 06:41:35;;;;;;;22.20;13.45;;;;;;;7.29;100.00;100862.91;4985121;28;20036;-92
2022/12/28 06:44:04;;;;;;;21.60;12.30;;;;;;;7.42;100.00;100872.81;4991214;28;20034;-91
2022/12/28 06:46:29;;;;;;;27.13;13.05;;;;;;;7.29;100.00;100863.72;4994478;28;20026;-90
2022/12/28 06:48:56;;;;;;;25.15;13.60;;;;;;;7.43;100.00;100852.16;4983949;28;20030;-92
2022/12/28 06:51:27;;;;;;;19.05;11.27;;;;;;;7.51;100.00;100869.88;4983427;28;20033;-91
2022/12/28 06:53:53;;;;;;;22.80;13.30;;;;;;;7.53;100.00;100873.91;5001069;28;20027;-91
2022/12/28 06:56:23;;;;;;;21.77;13.18;;;;;;;7.48;100.00;100853.84;4978377;28;20117;-90
2022/12/28 06:58:50;;;;;;;23.90;12.10;;;;;;;7.42;100.00;100850.56;4977590;28;20031;-90
2022/12/28 07:01:22;;;;;;;22.52;13.32;;;;;;;7.47;100.00;100853.06;4980135;28;20464;-90
2022/12/28 07:03:49;;;;;;;25.75;12.57;;;;;;;7.60;100.00;100866.91;4986931;28;21233;-91
2022/12/28 07:06:17;;;;;;;23.13;13.10;;;;;;;7.60;100.00;100856.56;4982210;28;20117;-90
2022/12/28 07:08:43;;;;;;;22.98;11.82;;;;;;;7.58;100.00;100858.91;4985112;28;20360;-91
2022/12/28 07:11:11;;;;;;;23.25;13.63;;;;;;;7.61;100.00;100860.16;4974084;28;20039;-90
2022/12/28 07:13:37;;;;;;;27.48;15.23;;;;;;;7.59;100.00;100849.41;4985919;28;20441;-91
2022/12/28 07:16:05;;;;;;;20.80;12.57;;;;;;;7.57;100.00;100868.44;4990942;28;20030;-90
2022/12/28 07:18:31;;;;;;;28.52;13.27;;;;;;;7.66;100.00;100857.13;4985631;28;20109;-91
2022/12/28 07:21:02;;;;;;;27.20;14.63;;;;;;;7.64;100.00;100868.63;5001663;28;20040;-91
2022/12/28 07:23:30;;;;;;;21.90;13.35;;;;;;;7.66;100.00;100866.28;4997882;28;20092;-89
2022/12/28 07:25:57;;;;;;;28.80;14.80;;;;;;;7.77;100.00;100868.53;5001622;28;20033;-90
2022/12/28 07:28:23;;;;;;;27.10;13.25;;;;;;;7.62;100.00;100864.56;4988102;28;20504;-90
2022/12/28 07:30:48;;;;;;;24.95;12.85;;;;;;;7.67;100.00;100859.56;4987997;28;20034;-90
2022/12/28 07:33:14;;;;;;;23.98;14.20;;;;;;;7.66;100.00;100843.19;4984489;28;20046;-91
2022/12/28 07:35:39;;;;;;;22.00;13.13;;;;;;;7.57;100.00;100842.53;4988036;28;20026;-91
2022/12/28 07:38:04;;;;;;;22.42;13.88;;;;;;;7.67;100.00;100855.94;4984869;28;20176;-91
2022/12/28 07:40:30;;;;;;;27.23;14.88;;;;;;;7.75;100.00;100868.91;4987496;28;20038;-90
2022/12/28 07:42:55;;;;;;;19.17;11.55;;;;;;;7.59;100.00;100862.50;4989154;28;20466;-92
2022/12/28 07:45:20;;;;;;;23.20;13.30;;;;;;;7.59;100.00;100848.56;5007290;28;20030;-92
2022/12/28 07:47:46;;;;;;;22.33;12.45;;;;;;;7.66;100.00;100866.28;4994114;28;20083;-91
2022/12/28 07:50:11;;;;;;;22.13;12.90;;;;;;;7.74;100.00;100873.66;4982324;28;20026;-91
2022/12/28 07:52:36;;;;;;;22.08;12.10;;;;;;;7.56;100.00;100846.50;5000894;28;20113;-91
2022/12/28 07:55:02;;;;;;;20.95;11.75;;;;;;;7.67;100.00;100864.31;5000197;28;20386;-92
2022/12/28 07:57:28;;;;;;;25.02;13.40;;;;;;;7.70;100.00;100866.38;4979709;28;20056;-91
2022/12/28 07:59:53;;;;;;;21.77;11.98;;;;;;;7.79;100.00;100864.22;4989141;28;20034;-92
2022/12/28 08:02:18;;;;;;;20.52;11.68;;;;;;;7.70;100.00;100861.63;4983539;28;20030;-92
2022/12/28 08:04:44;;;;;;;19.80;11.90;;;;;;;7.71;100.00;100859.63;4984691;28;20042;-91
2022/12/28 08:07:09;;;;;;;23.45;12.80;;;;;;;7.69;100.00;100850.81;4989405;28;20057;-90
2022/12/28 08:09:38;;;;;;;21.40;11.70;;;;;;;7.78;100.00;100859.84;4980306;28;20521;-91
2022/12/28 08:12:03;;;;;;;20.90;11.68;;;;;;;7.59;100.00;100843.00;4984229;28;20053;-92
2022/12/28 08:14:29;;;;;;;21.90;10.32;;;;;;;7.76;100.00;100852.97;4990223;28;20080;-91
2022/12/28 08:16:55;;;;;;;21.75;12.05;;;;;;;7.61;100.00;100847.06;4994934;28;20038;-92
2022/12/28 08:19:20;;;;;;;18.38;11.38;;;;;;;7.83;100.00;100842.81;4987635;28;20277;-91
2022/12/28 08:21:45;;;;;;;19.65;11.63;;;;;;;7.84;100.00;100843.63;4986617;28;20037;-92
2022/12/28 08:24:17;;;;;;;17.00;10.52;;;;;;;7.66;100.00;100837.63;4986196;28;20391;-90
2022/12/28 08:26:43;;;;;;;17.63;10.05;;;;;;;7.81;100.00;100856.31;4992760;28;20081;-90
2022/12/28 08:29:13;;;;;;;17.23;10.50;;;;;;;7.81;100.00;100856.31;4984333;28;20762;-90
2022/12/28 08:31:41;;;;;;;14.73;9.32;;;;;;;7.90;100.00;100856.94;4989047;28;20030;-91
2022/12/28 08:34:09;;;;;;;19.83;10.45;;;;;;;8.01;100.00;100859.16;4989586;28;20186;-91
2022/12/28 08:36:35;;;;;;;18.17;9.43;;;;;;;7.92;100.00;100856.56;5005687;28;20066;-91
2022/12/28 08:39:01;;;;;;;16.30;9.18;;;;;;;7.89;100.00;100855.31;4987645;28;20125;-91
2022/12/28 08:41:28;;;;;;;20.58;10.13;;;;;;;7.92;100.00;100865.75;4988913;28;20084;-91
2022/12/28 08:43:54;;;;;;;16.00;9.93;;;;;;;7.88;100.00;100870.41;4990304;28;20036;-90
2022/12/28 08:46:22;;;;;;;14.25;8.98;;;;;;;7.89;100.00;100857.31;5004123;28;20057;-91
2022/12/28 08:48:49;;;;;;;17.80;9.57;;;;;;;7.77;100.00;100857.41;4992039;28;20025;-91
2022/12/28 08:51:17;;;;;;;27.55;12.30;;;;;;;7.90;100.00;100864.50;4994635;28;20123;-91
2022/12/28 08:53:43;;;;;;;20.80;10.50;;;;;;;7.84;100.00;100860.34;4999723;28;20033;-91
2022/12/28 08:56:15;;;;;;;19.75;11.38;;;;;;;8.04;100.00;100877.97;4982113;28;20034;-92
2022/12/28 08:58:42;;;;;;;20.15;10.88;;;;;;;8.01;100.00;100867.53;5003702;28;21208;-90
2022/12/28 09:01:13;;;;;;;21.35;12.35;;;;;;;8.01;100.00;100867.53;5002392;28;20026;-91
2022/12/28 09:03:41;;;;;;;22.65;12.48;;;;;;;8.02;100.00;100877.53;4982675;28;20097;-91
2022/12/28 09:06:11;;;;;;;17.73;11.32;;;;;;;7.89;100.00;100880.41;4982655;28;20382;-90
2022/12/28 09:08:36;;;;;;;19.42;12.13;;;;;;;8.02;100.00;100872.75;4985412;28;20046;-92
2022/12/28 09:11:04;;;;;;;24.65;13.95;;;;;;;8.01;100.00;100868.38;4985464;28;20061;-91
2022/12/28 09:13:30;;;;;;;20.95;12.77;;;;;;;8.01;100.00;100870.31;4979569;28;20050;-93
2022/12/28 09:16:04;;;;;;;24.50;12.35;;;;;;;8.19;100.00;100860.41;4986675;28;20045;-89
2022/12/28 09:18:30;;;;;;;22.20;11.35;;;;;;;8.09;100.00;100872.13;4968309;28;20069;-85
2022/12/28 09:20:55;;;;;;;20.25;12.07;;;;;;;8.02;100.00;100863.59;4989806;28;20041;-83
2022/12/28 09:23:21;;;;;;;24.98;13.77;;;;;;;8.07;100.00;100868.88;4990744;28;20038;-85
2022/12/28 09:25:47;;;;;;;25.00;13.80;;;;;;;8.08;100.00;100876.09;4997004;28;20121;-85
2022/12/28 09:28:13;;;;;;;19.30;11.63;;;;;;;7.97;100.00;100863.84;4984884;28;20110;-84
2022/12/28 09:30:38;;;;;;;26.30;12.57;;;;;;;8.02;100.00;100863.59;4983808;28;20026;-85
2022/12/28 09:35:47;;;;;;;20.42;12.48;;;;;;;8.07;100.00;100874.47;4982435;28;20057;-85
2022/12/28 09:38:13;;;;;;;21.20;12.70;;;;;;;8.08;100.00;100864.94;4981085;28;20141;-85
2022/12/28 09:40:38;;;;;;;23.90;12.02;;;;;;;8.05;100.00;100871.22;4978718;28;20041;-85
2022/12/28 09:43:04;;;;;;;24.80;12.95;;;;;;;8.04;100.00;100864.03;4978737;28;20486;-85
2022/12/28 09:45:32;;;;;;;20.38;11.65;;;;;;;8.11;100.00;100869.78;4997742;28;20077;-84
2022/12/28 09:48:03;;;;;;;20.15;12.43;;;;;;;8.00;100.00;100861.16;4977049;28;20069;-85
2022/12/28 09:50:34;;;;;;;25.58;12.52;;;;;;;8.09;100.00;100863.75;4976006;28;20045;-84
2022/12/28 09:53:25;;;;;;;20.08;10.90;;;;;;;8.14;100.00;100871.84;4988869;28;20022;-84
2022/12/28 09:56:12;;;;;;;23.30;11.35;;;;;;;8.14;100.00;100863.50;4985554;28;20034;-85
2022/12/28 09:58:43;;;;;;;22.95;11.45;;;;;;;8.12;100.00;100857.47;4997490;28;20395;-84
2022/12/28 10:01:12;;;;;;;21.23;10.38;;;;;;;8.09;100.00;100872.13;4984988;28;20022;-85
2022/12/28 10:03:40;;;;;;;21.23;11.20;;;;;;;7.99;100.00;100850.38;4991304;28;20047;-84
2022/12/28 10:06:12;;;;;;;18.65;10.20;;;;;;;8.09;100.00;100858.19;4987444;28;20463;-84
2022/12/28 10:08:43;;;;;;;22.65;10.20;;;;;;;8.08;100.00;100856.56;4975046;28;20284;-84
2022/12/28 10:11:15;;;;;;;16.70;9.65;;;;;;;8.06;100.00;100859.72;4991291;28;20073;-84
2022/12/28 10:13:40;;;;;;;18.63;9.95;;;;;;;8.04;100.00;100858.47;4980231;28;20479;-85
2022/12/28 10:16:14;;;;;;;15.40;8.85;;;;;;;7.96;100.00;100851.09;4987918;28;20109;-85
2022/12/28 10:18:43;;;;;;;18.10;8.52;;;;;;;8.08;100.00;100862.16;4987466;28;20544;-85
2022/12/28 10:21:10;;;;;;;14.43;8.93;;;;;;;8.00;100.00;100863.16;4997550;28;20057;-85
2022/12/28 10:23:37;;;;;;;16.45;8.60;;;;;;;8.08;100.00;100864.94;4990324;28;20069;-85
2022/12/28 10:26:04;;;;;;;15.40;7.43;;;;;;;8.11;100.00;100858.63;4987974;28;20058;-85
2022/12/28 10:28:44;;;;;;;14.52;8.18;;;;;;;8.10;100.00;100868.19;4986869;28;20061;-85
2022/12/28 10:31:10;;;;;;;15.52;7.93;;;;;;;8.04;100.00;100858.47;4980999;28;20044;-85
2022/12/28 10:33:41;;;;;;;14.00;8.88;;;;;;;8.16;100.00;100858.38;4988890;28;20031;-84
2022/12/28 10:36:12;;;;;;;14.55;8.90;;;;;;;8.15;100.00;100848.38;4990329;28;20397;-85
2022/12/28 10:38:42;;;;;;;13.88;8.07;;;;;;;8.15;100.00;100853.94;4999778;28;20034;-84
2022/12/28 10:41:14;;;;;;;18.30;8.95;;;;;;;8.22;100.00;100854.13;4983432;28;20101;-85
2022/12/28 10:43:44;;;;;;;15.55;8.95;;;;;;;8.16;100.00;100838.84;4981951;28;20058;-86
2022/12/28 10:46:22;;;;;;;14.88;8.88;;;;;;;8.13;100.00;100823.63;5005193;28;20035;-85
2022/12/28 10:48:54;;;;;;;17.13;8.48;;;;;;;8.16;100.00;100833.28;4999098;28;20077;-85
2022/12/28 10:51:25;;;;;;;12.63;7.88;;;;;;;8.18;100.00;100830.09;4987305;28;20027;-85
2022/12/28 10:53:56;;;;;;;15.07;8.52;;;;;;;8.20;100.00;100823.00;5002935;28;20030;-84
2022/12/28 10:56:27;;;;;;;12.70;7.55;;;;;;;8.14;100.00;100827.25;4991457;28;20657;-85
2022/12/28 10:59:13;;;;;;;12.23;7.18;;;;;;;8.28;100.00;100808.03;5004859;28;20022;-88
2022/12/28 11:01:40;;;;;;;17.80;6.50;;;;;;;8.21;100.00;100819.03;5000192;28;20121;-89
2022/12/28 11:04:14;;;;;;;10.95;6.80;;;;;;;8.34;100.00;100823.31;4992194;28;20103;-88
2022/12/28 11:06:58;;;;;;;13.98;7.18;;;;;;;8.29;100.00;100818.03;5006907;28;20061;-89
2022/12/28 11:09:30;;;;;;;10.73;6.22;;;;;;;8.26;100.00;100812.38;4988240;28;20073;-89
2022/12/28 11:12:32;;;;;;;12.25;8.13;;;;;;;8.27;100.00;100812.00;5004458;28;20066;-88
2022/12/28 11:14:57;;;;;;;11.48;6.53;;;;;;;8.30;100.00;100800.13;4989806;28;20030;-89
2022/12/28 11:17:26;;;;;;;13.70;7.07;;;;;;;8.35;100.00;100808.22;4987495;28;20046;-88
2022/12/28 11:20:15;;;;;;;12.10;7.47;;;;;;;8.22;100.00;100787.22;4992999;28;20033;-88
2022/12/28 11:22:41;;;;;;;13.90;7.97;;;;;;;8.35;100.00;100797.06;4988434;28;20034;-89
2022/12/28 11:25:07;;;;;;;13.02;7.90;;;;;;;8.29;100.00;100792.13;4989223;28;20042;-89
2022/12/28 11:27:33;;;;;;;13.02;8.40;;;;;;;8.19;100.00;100771.19;4988267;28;20034;-89
2022/12/28 11:29:58;;;;;;;13.32;8.30;;;;;;;8.20;100.00;100772.81;4987970;28;20029;-88
2022/12/28 11:32:29;;;;;;;16.75;7.72;;;;;;;8.31;100.00;100784.22;4987964;28;20034;-88
2022/12/28 11:34:56;;;;;;;12.68;7.30;;;;;;;8.26;100.00;100776.91;5006013;28;20576;-89
2022/12/28 11:37:22;;;;;;;13.38;7.47;;;;;;;8.31;100.00;100768.28;4986632;28;20508;-89
2022/12/28 11:39:51;;;;;;;10.50;6.43;;;;;;;8.30;100.00;100766.66;4992402;28;20152;-89
2022/12/28 11:42:35;;;;;;;11.70;7.57;;;;;;;8.33;100.00;100776.28;4997622;28;20387;-88
2022/12/28 11:45:03;;;;;;;18.02;6.80;;;;;;;8.27;100.00;100763.81;4992583;28;20033;-89
2022/12/28 11:47:32;;;;;;;11.13;6.90;;;;;;;8.32;100.00;100764.31;4981075;28;20495;-89
2022/12/28 11:50:37;;;;;;;12.50;7.25;;;;;;;8.29;100.00;100769.81;4985814;28;20038;-89
2022/12/28 11:53:17;;;;;;;9.55;6.55;;;;;;;8.29;100.00;100748.31;5006781;28;20057;-87